Home > Products > Valid Products > MTR

000
SAUS43 KUNR 280000
MTR2WX
METAR K2WX 272356Z AUTO 18009KT 26/16 A2988 RMK AO1 SLP098 60014
T02610161 10317 20239 55003





000
SAUS43 KUNR 272358
MTRD07
METAR KD07 272356Z AUTO 14011KT 24/12 A2995 RMK AO1 SLP130 T02440117
10272 20211 58012





000
SAUS43 KUNR 272300
MTR2WX
METAR K2WX 272256Z AUTO 07006KT 26/17 A2988 RMK AO1 SLP097 P0014
T02610172





000
SAUS43 KUNR 272300
MTR2WX
METAR K2WX 272256Z AUTO 07006KT 26/17 A2988 RMK AO1 SLP097 P0014
T02610172





000
SAUS43 KUNR 272257
MTRD07
METAR KD07 272256Z AUTO 13013KT 27/11 A2996 RMK AO1 SLP132 T02670111





000
SAUS43 KUNR 272257
MTRD07
METAR KD07 272256Z AUTO 13013KT 27/11 A2996 RMK AO1 SLP132 T02670111





000
SAUS43 KUNR 272200
MTR2WX
METAR K2WX 272156Z AUTO 01006KT 30/17 A2988 RMK AO1 SLP094 T03000167





000
SAUS43 KUNR 272200
MTR2WX
METAR K2WX 272156Z AUTO 01006KT 30/17 A2988 RMK AO1 SLP094 T03000167





000
SAUS43 KUNR 272158
MTRD07
METAR KD07 272156Z AUTO 15011KT 26/14 A2998 RMK AO1 SLP137 T02610144





000
SAUS43 KUNR 272100
MTR2WX
METAR K2WX 272056Z AUTO 31005KT 30/17 A2990 RMK AO1 SLP099 T03000172
56013





000
SAUS43 KUNR 272057
MTRD07
METAR KD07 272056Z AUTO 15010KT 23/15 A2999 RMK AO1 SLP141 T02330150
55010





000
SAUS43 KUNR 272057
MTRD07
METAR KD07 272056Z AUTO 15010KT 23/15 A2999 RMK AO1 SLP141 T02330150
55010





000
SAUS43 KUNR 272000
MTR2WX
METAR K2WX 271956Z AUTO VRB05KT 29/17 A2990 RMK AO1 SLP102 T02940172





000
SAUS43 KUNR 271957
MTRD07
METAR KD07 271956Z AUTO 16011KT 24/14 A2999 RMK AO1 SLP140 T02390144





000
SAUS43 KUNR 271957
MTRD07
METAR KD07 271956Z AUTO 16011KT 24/14 A2999 RMK AO1 SLP140 T02390144





000
SAUS43 KUNR 271901
MTR2WX
METAR K2WX 271856Z AUTO 21006KT 28/17 A2992 RMK AO1 SLP107 T02830172





000
SAUS43 KUNR 271857
MTRD07
METAR KD07 271856Z AUTO 14006KT 22/16 A3000 RMK AO1 SLP147 T02170156





000
SAUS43 KUNR 271802 COR
MTR2WX
METAR K2WX 271756Z AUTO 25007KT 27/17 A2994 RMK AO1 SLP116 T02670167
10267 20172 58001





000
SAUS43 KUNR 271801 COR
MTR2WX
METAR K2WX 271756Z AUTO 25007KT 27/17 A2994 RMK AO1 SLP116 T02670167
10267 20172 58001





000
SAUS43 KUNR 271700
MTR2WX
METAR K2WX 271656Z AUTO 27005KT 23/15 A2995 RMK AO1 SLP122 T02330150





000
SAUS43 KUNR 271700
MTR2WX
METAR K2WX 271656Z AUTO 27005KT 23/15 A2995 RMK AO1 SLP122 T02330150





000
SAUS43 KUNR 271600
MTR2WX
METAR K2WX 271556Z AUTO 23005KT 22/16 A2995 RMK AO1 SLP121 T02170161





000
SAUS43 KUNR 271501
MTR2WX
METAR K2WX 271456Z AUTO 19008KT 19/16 A2994 RMK AO1 SLP119 T01890156
50001





000
SAUS43 KUNR 271501
MTR2WX
METAR K2WX 271456Z AUTO 19008KT 19/16 A2994 RMK AO1 SLP119 T01890156
50001





000
SAUS43 KUNR 271400
MTR2WX
METAR K2WX 271356Z AUTO 12004KT 18/16 A2996 RMK AO1 SLP125 T01830156





000
SAUS43 KUNR 271400
MTR2WX
METAR K2WX 271356Z AUTO 12004KT 18/16 A2996 RMK AO1 SLP125 T01830156





000
SAUS43 KUNR 271300
MTR2WX
METAR K2WX 271256Z AUTO 13004KT 17/16 A2995 RMK AO1 SLP123 T01720156
$





000
SAUS43 KUNR 271300
MTR2WX
METAR K2WX 271256Z AUTO 13004KT 17/16 A2995 RMK AO1 SLP123 T01720156
$





000
SAUS43 KUNR 271202 COR
MTR2WX
METAR K2WX 271156Z AUTO 16006KT 18/16 A2994 RMK AO1 SLP117 7////
T01780156 10200 20172 51007 $





000
SAUS43 KUNR 271202 COR
MTR2WX
METAR K2WX 271156Z AUTO 16006KT 18/16 A2994 RMK AO1 SLP117 7////
T01780156 10200 20172 51007 $





000
SAUS43 KUNR 271201 COR
MTR2WX
METAR K2WX 271156Z AUTO 16006KT 18/16 A2994 RMK AO1 SLP117 7////
T01780156 10200 20172 51007 $





000
SAUS43 KUNR 271201 COR
MTR2WX
METAR K2WX 271156Z AUTO 16006KT 18/16 A2994 RMK AO1 SLP117 7////
T01780156 10200 20172 51007 $





000
SAUS43 KUNR 271100
MTR2WX
METAR K2WX 271056Z AUTO 20006KT 17/16 A2993 RMK AO1 SLP111 T01720156
$





000
SAUS43 KUNR 271100
MTR2WX
METAR K2WX 271056Z AUTO 20006KT 17/16 A2993 RMK AO1 SLP111 T01720156
$





000
SAUS43 KUNR 271002 COR
MTR2WX
METAR K2WX 270956Z AUTO 13006KT 18/16 A2994 RMK AO1 SLP113 T01780161
$





000
SAUS43 KUNR 271001 COR
MTR2WX
METAR K2WX 270956Z AUTO 13006KT 18/16 A2994 RMK AO1 SLP113 T01780161
$





000
SAUS43 KUNR 270900
MTR2WX
METAR K2WX 270856Z AUTO 08007KT 18/17 A2991 RMK AO1 SLP105 T01780167
58005 $





000
SAUS43 KUNR 270900
MTR2WX
METAR K2WX 270856Z AUTO 08007KT 18/17 A2991 RMK AO1 SLP105 T01780167
58005 $





000
SAUS43 KUNR 270800
MTR2WX
METAR K2WX 270756Z AUTO 06008KT 18/17 A2993 RMK AO1 SLP109 T01780167
$





000
SAUS43 KUNR 270701
MTR2WX
METAR K2WX 270656Z AUTO 08004KT 19/17 A2996 RMK AO1 SLP118 T01940167
403170122 $





000
SAUS43 KUNR 270601
MTR2WX
METAR K2WX 270556Z AUTO 09009KT 19/17 A2993 RMK AO1 SLP114 T01890167
10267 20189 58010 $





000
SAUS43 KUNR 270500
MTR2WX
METAR K2WX 270456Z AUTO 12007KT 21/17 A2994 RMK AO1 SLP115 T02060167
$





000
SAUS43 KUNR 270500
MTR2WX
METAR K2WX 270456Z AUTO 12007KT 21/17 A2994 RMK AO1 SLP115 T02060167
$





000
SAUS43 KUNR 270401
MTR2WX
METAR K2WX 270356Z AUTO 10004KT 22/17 A2998 RMK AO1 SLP130 T02220167
$





000
SAUS43 KUNR 270401
MTR2WX
METAR K2WX 270356Z AUTO 10004KT 22/17 A2998 RMK AO1 SLP130 T02220167
$





000
SAUS43 KUNR 270301
MTR2WX
METAR K2WX 270256Z AUTO 01003KT 23/17 A2997 RMK AO1 SLP129 T02280167
53007 $





000
SAUS43 KUNR 270201
MTR2WX
METAR K2WX 270156Z AUTO 08010KT 24/17 A2993 RMK AO1 SLP119 T02390172
$





000
SAUS43 KUNR 270201
MTR2WX
METAR K2WX 270156Z AUTO 08010KT 24/17 A2993 RMK AO1 SLP119 T02390172
$





000
SAUS43 KUNR 270100
MTR2WX
METAR K2WX 270056Z AUTO 09010KT 26/17 A2994 RMK AO1 SLP120 T02560172
$





000
SAUS43 KUNR 270100
MTR2WX
METAR K2WX 270056Z AUTO 09010KT 26/17 A2994 RMK AO1 SLP120 T02560172
$





000
SAUS43 KUNR 270000
MTR2WX
METAR K2WX 262356Z AUTO 09008KT 27/17 A2994 RMK AO1 SLP121 6////
T02670172 10317 20250 $





000
SAUS43 KUNR 270000
MTR2WX
METAR K2WX 262356Z AUTO 09008KT 27/17 A2994 RMK AO1 SLP121 6////
T02670172 10317 20250 $





000
SAUS43 KUNR 262202
MTR2WX
METAR K2WX 262156Z AUTO 15011KT 29/16 A2997 RMK AO1 SLP126 T02940156





000
SAUS43 KUNR 262102
MTR2WX
METAR K2WX 262056Z AUTO 15013KT 31/16 A2996 RMK AO1 SLP122 T03060156
56016





000
SAUS43 KUNR 262000
MTR2WX
METAR K2WX 261956Z AUTO 15009KT 31/16 A2997 RMK AO1 SLP126 T03110156





000
SAUS43 KUNR 261903
MTR2WX
METAR K2WX 261856Z AUTO 14012KT 31/16 A2999 RMK AO1 SLP131 T03060156





000
SAUS43 KUNR 261800
MTR2WX
METAR K2WX 261756Z AUTO 08008KT 27/16 A3001 RMK AO1 SLP142 T02670156
10267 20122 56001





000
SAUS43 KUNR 261800
MTR2WX
METAR K2WX 261756Z AUTO 08008KT 27/16 A3001 RMK AO1 SLP142 T02670156
10267 20122 56001





000
SAUS43 KUNR 261703
MTR2WX
METAR K2WX 261656Z AUTO 08007KT 25/15 A3002 RMK AO1 SLP145 T02500150





000
SAUS43 KUNR 261602
MTR2WX
METAR K2WX 261556Z AUTO 13004KT 22/14 A3001 RMK AO1 SLP143 T02170144





000
SAUS43 KUNR 261502
MTR2WX
METAR K2WX 261456Z AUTO 11004KT 18/14 A3002 RMK AO1 SLP149 T01780139
53006





000
SAUS43 KUNR 261400
MTR2WX
METAR K2WX 261356Z AUTO 12004KT 17/13 A3000 RMK AO1 SLP145 T01670133





000
SAUS43 KUNR 261400
MTR2WX
METAR K2WX 261356Z AUTO 12004KT 17/13 A3000 RMK AO1 SLP145 T01670133





000
SAUS43 KUNR 261300
MTR2WX
METAR K2WX 261256Z AUTO VRB04KT 14/12 A3000 RMK AO1 SLP142 T01390117





000
SAUS43 KUNR 261300
MTR2WX
METAR K2WX 261256Z AUTO VRB04KT 14/12 A3000 RMK AO1 SLP142 T01390117





000
SAUS43 KUNR 261202 COR
MTR2WX
METAR K2WX 261156Z AUTO 08005KT 14/12 A2999 RMK AO1 SLP138 T01390117
10178 20122 57007





000
SAUS43 KUNR 261202 COR
MTR2WX
METAR K2WX 261156Z AUTO 08005KT 14/12 A2999 RMK AO1 SLP138 T01390117
10178 20122 57007





000
SAUS43 KUNR 261200 COR
MTR2WX
METAR K2WX 261156Z AUTO 08005KT 14/12 A2999 RMK AO1 SLP138 T01390117
10178 20122 57007





000
SAUS43 KUNR 261200 COR
MTR2WX
METAR K2WX 261156Z AUTO 08005KT 14/12 A2999 RMK AO1 SLP138 T01390117
10178 20122 57007





000
SAUS43 KUNR 261059 COR
MTR2WX
METAR K2WX 261056Z AUTO 26012G19KT 12/11 A3002 RMK AO1 PRESRR SLP146
T01220111





000
SAUS43 KUNR 261059 COR
MTR2WX
METAR K2WX 261056Z AUTO 26012G19KT 12/11 A3002 RMK AO1 PRESRR SLP146
T01220111





000
SAUS43 KUNR 261000 COR
MTR2WX
METAR K2WX 260956Z AUTO 10007KT 14/12 A3000 RMK AO1 SLP137 T01440117





000
SAUS43 KUNR 260859 COR
MTR2WX
METAR K2WX 260856Z AUTO 18004KT 17/12 A3002 RMK AO1 SLP143 T01670122
51002





000
SAUS43 KUNR 260859 COR
MTR2WX
METAR K2WX 260856Z AUTO 18004KT 17/12 A3002 RMK AO1 SLP143 T01670122
51002





000
SAUS43 KUNR 260800 COR
MTR2WX
METAR K2WX 260756Z AUTO 16004KT 17/12 A3001 RMK AO1 SLP143 T01670122





000
SAUS43 KUNR 260800 COR
MTR2WX
METAR K2WX 260756Z AUTO 16004KT 17/12 A3001 RMK AO1 SLP143 T01670122





000
SAUS43 KUNR 260702 COR
MTR2WX
METAR K2WX 260656Z AUTO 00000KT 17/12 A3001 RMK AO1 SLP143 T01720122
402940111





000
SAUS43 KUNR 260702 COR
MTR2WX
METAR K2WX 260656Z AUTO 00000KT 17/12 A3001 RMK AO1 SLP143 T01720122
402940111





000
SAUS43 KUNR 260701 COR
MTR2WX
METAR K2WX 260656Z AUTO 00000KT 17/12 A3001 RMK AO1 SLP143 T01720122
402940111





000
SAUS43 KUNR 260701 COR
MTR2WX
METAR K2WX 260656Z AUTO 00000KT 17/12 A3001 RMK AO1 SLP143 T01720122
402940111





000
SAUS43 KUNR 260559 COR
MTR2WX
METAR K2WX 260556Z AUTO 18005KT 18/12 A3001 RMK AO1 SLP142 T01780122
10278 20172 58002





000
SAUS43 KUNR 260559 COR
MTR2WX
METAR K2WX 260556Z AUTO 18005KT 18/12 A3001 RMK AO1 SLP142 T01780122
10278 20172 58002





000
SAUS43 KUNR 260500 COR
MTR2WX
METAR K2WX 260456Z AUTO 15008KT 18/13 A3002 RMK AO1 SLP147 T01830128





000
SAUS43 KUNR 260500 COR
MTR2WX
METAR K2WX 260456Z AUTO 15008KT 18/13 A3002 RMK AO1 SLP147 T01830128





000
SAUS43 KUNR 260400 COR
MTR2WX
METAR K2WX 260356Z AUTO 15009KT 21/13 A3002 RMK AO1 SLP148 T02060128





000
SAUS43 KUNR 260259 COR
MTR2WX
METAR K2WX 260256Z AUTO 13009KT 21/13 A3002 RMK AO1 SLP150 T02060133
53006





000
SAUS43 KUNR 260259 COR
MTR2WX
METAR K2WX 260256Z AUTO 13009KT 21/13 A3002 RMK AO1 SLP150 T02060133
53006





000
SAUS43 KUNR 260200 COR
MTR2WX
METAR K2WX 260156Z AUTO 12011KT 22/14 A3000 RMK AO1 SLP146 T02220139





000
SAUS43 KUNR 260100 COR
MTR2WX
METAR K2WX 260056Z AUTO 12010KT 25/14 A3000 RMK AO1 SLP145 T02500144





000
SAUS43 KUNR 260100 COR
MTR2WX
METAR K2WX 260056Z AUTO 12010KT 25/14 A3000 RMK AO1 SLP145 T02500144





000
SAUS43 KUNR 252359 COR
MTR2WX
METAR K2WX 252356Z AUTO 15012KT 28/14 A3000 RMK AO1 SLP141 T02780139
10294 20256 55003





000
SAUS43 KUNR 252359 COR
MTR2WX
METAR K2WX 252356Z AUTO 15012KT 28/14 A3000 RMK AO1 SLP141 T02780139
10294 20256 55003





000
SAUS43 KUNR 252300 COR
MTR2WX
METAR K2WX 252256Z AUTO 15017KT 29/13 A2998 RMK AO1 SLP135 T02890133





000
SAUS43 KUNR 252300 COR
MTR2WX
METAR K2WX 252256Z AUTO 15017KT 29/13 A2998 RMK AO1 SLP135 T02890133





000
SAUS43 KUNR 252159 COR
MTR2WX
METAR K2WX 252156Z AUTO 16014KT 29/13 A2999 RMK AO1 SLP138 T02890133





000
SAUS43 KUNR 252059 COR
MTR2WX
METAR K2WX 252056Z AUTO 15015KT 29/12 A3001 RMK AO1 SLP143 T02890122
55005





000
SAUS43 KUNR 252059 COR
MTR2WX
METAR K2WX 252056Z AUTO 15015KT 29/12 A3001 RMK AO1 SLP143 T02890122
55005





000
SAUS43 KUNR 252000 COR
MTR2WX
METAR K2WX 251956Z AUTO 15017G23KT 28/12 A3001 RMK AO1 SLP143
T02780122





000
SAUS43 KUNR 251902 COR
MTR2WX
METAR K2WX 251856Z AUTO 16020G24KT 27/12 A3002 RMK AO1 SLP147
T02720117





000
SAUS43 KUNR 251902 COR
MTR2WX
METAR K2WX 251856Z AUTO 16020G24KT 27/12 A3002 RMK AO1 SLP147
T02720117





000
SAUS43 KUNR 251901 COR
MTR2WX
METAR K2WX 251856Z AUTO 16020G24KT 27/12 A3002 RMK AO1 SLP147
T02720117





000
SAUS43 KUNR 251901 COR
MTR2WX
METAR K2WX 251856Z AUTO 16020G24KT 27/12 A3002 RMK AO1 SLP147
T02720117





000
SAUS43 KUNR 251859 COR
MTR2WX
METAR K2WX 251856Z AUTO 16020G24KT 27/12 A3002 RMK AO1 SLP147
T02720117





000
SAUS43 KUNR 251802 COR
MTR2WX
METAR K2WX 251756Z AUTO 15020KT 26/11 A3003 RMK AO1 PK WND
15027/1743 SLP150 T02560106 10256 20111 58013





000
SAUS43 KUNR 251801 COR
MTR2WX
METAR K2WX 251756Z AUTO 15020KT 26/11 A3003 RMK AO1 PK WND
15027/1743 SLP150 T02560106 10256 20111 58013





000
SAUS43 KUNR 251801 COR
MTR2WX
METAR K2WX 251756Z AUTO 15020KT 26/11 A3003 RMK AO1 PK WND
15027/1743 SLP150 T02560106 10256 20111 58013





000
SAUS43 KUNR 251759 COR
MTR2WX
METAR K2WX 251756Z AUTO 15020KT 26/11 A3003 RMK AO1 PK WND
15027/1743 SLP150 T02560106 10256 20111 58013





000
SAUS43 KUNR 251759 COR
MTR2WX
METAR K2WX 251756Z AUTO 15020KT 26/11 A3003 RMK AO1 PK WND
15027/1743 SLP150 T02560106 10256 20111 58013





000
SAUS43 KUNR 251700 COR
MTR2WX
METAR K2WX 251656Z AUTO 15015KT 23/11 A3005 RMK AO1 SLP164 T02280106





000
SAUS43 KUNR 251700 COR
MTR2WX
METAR K2WX 251656Z AUTO 15015KT 23/11 A3005 RMK AO1 SLP164 T02280106





000
SAUS43 KUNR 251600 COR
MTR2WX
METAR K2WX 251556Z AUTO 15016KT 20/09 A3006 RMK AO1 SLP166 T02000094





000
SAUS43 KUNR 251500 COR
MTR2WX
METAR K2WX 251456Z AUTO 15011KT 17/08 A3007 RMK AO1 SLP172 T01670083
51004





000
SAUS43 KUNR 251359 COR
MTR2WX
METAR K2WX 251356Z AUTO 16010KT 13/08 A3006 RMK AO1 SLP172 T01330078





000
SAUS43 KUNR 251359 COR
MTR2WX
METAR K2WX 251356Z AUTO 16010KT 13/08 A3006 RMK AO1 SLP172 T01330078





000
SAUS43 KUNR 251357
MTRD07
METAR KD07 251356Z AUTO 15013KT 14/07 A3015 RMK AO1 SLP207 T01440067





000
SAUS43 KUNR 251357
MTRD07
METAR KD07 251356Z AUTO 15013KT 14/07 A3015 RMK AO1 SLP207 T01440067





000
SAUS43 KUNR 251259 COR
MTR2WX
METAR K2WX 251256Z AUTO 15008KT 12/06 A3006 RMK AO1 SLP171 T01170061





000
SAUS43 KUNR 251259 COR
MTR2WX
METAR K2WX 251256Z AUTO 15008KT 12/06 A3006 RMK AO1 SLP171 T01170061





000
SAUS43 KUNR 251257
MTRD07
METAR KD07 251256Z AUTO 15015KT 12/06 A3013 RMK AO1 SLP199 T01220056





000
SAUS43 KUNR 251257
MTRD07
METAR KD07 251256Z AUTO 15015KT 12/06 A3013 RMK AO1 SLP199 T01220056





000
SAUS43 KUNR 251202 COR
MTR2WX
METAR K2WX 251156Z AUTO 13006KT 12/06 A3005 RMK AO1 SLP164 T01170056
10139 20111 55001





000
SAUS43 KUNR 251202 COR
MTR2WX
METAR K2WX 251156Z AUTO 13006KT 12/06 A3005 RMK AO1 SLP164 T01170056
10139 20111 55001





000
SAUS43 KUNR 251201 COR
MTR2WX
METAR K2WX 251156Z AUTO 13006KT 12/06 A3005 RMK AO1 SLP164 T01170056
10139 20111 55001





000
SAUS43 KUNR 251201 COR
MTR2WX
METAR K2WX 251156Z AUTO 13006KT 12/06 A3005 RMK AO1 SLP164 T01170056
10139 20111 55001





000
SAUS43 KUNR 251159 COR
MTR2WX
METAR K2WX 251156Z AUTO 13006KT 12/06 A3005 RMK AO1 SLP164 T01170056
10139 20111 55001





000
SAUS43 KUNR 251159 COR
MTR2WX
METAR K2WX 251156Z AUTO 13006KT 12/06 A3005 RMK AO1 SLP164 T01170056
10139 20111 55001





000
SAUS43 KUNR 251157
MTRD07
METAR KD07 251156Z AUTO 15014KT 11/05 A3013 RMK AO1 SLP197 T01060050
10144 20106 56003





000
SAUS43 KUNR 251157
MTRD07
METAR KD07 251156Z AUTO 15014KT 11/05 A3013 RMK AO1 SLP197 T01060050
10144 20106 56003





000
SAUS43 KUNR 251059 COR
MTR2WX
METAR K2WX 251056Z AUTO 13009KT 12/06 A3005 RMK AO1 SLP161 T01170056





000
SAUS43 KUNR 251059 COR
MTR2WX
METAR K2WX 251056Z AUTO 13009KT 12/06 A3005 RMK AO1 SLP161 T01170056





000
SAUS43 KUNR 251057
MTRD07
METAR KD07 251056Z AUTO 15014KT 11/05 A3013 RMK AO1 SLP197 T01110050





000
SAUS43 KUNR 251057
MTRD07
METAR KD07 251056Z AUTO 15014KT 11/05 A3013 RMK AO1 SLP197 T01110050





000
SAUS43 KUNR 250959 COR
MTR2WX
METAR K2WX 250956Z AUTO 13006KT 12/07 A3006 RMK AO1 SLP163 T01220067





000
SAUS43 KUNR 250957
MTRD07
METAR KD07 250956Z AUTO 15013KT 12/05 A3013 RMK AO1 SLP197 T01170050





000
SAUS43 KUNR 250859 COR
MTR2WX
METAR K2WX 250856Z AUTO 13005KT 12/07 A3006 RMK AO1 SLP163 T01220072
58006





000
SAUS43 KUNR 250858
MTRD07
METAR KD07 250856Z AUTO 15012KT 11/05 A3014 RMK AO1 SLP201 T01110050
56003





000
SAUS43 KUNR 250858
MTRD07
METAR KD07 250856Z AUTO 15012KT 11/05 A3014 RMK AO1 SLP201 T01110050
56003





000
SAUS43 KUNR 250759 COR
MTR2WX
METAR K2WX 250756Z AUTO 13007KT 13/07 A3007 RMK AO1 SLP167 T01280072





000
SAUS43 KUNR 250759 COR
MTR2WX
METAR K2WX 250756Z AUTO 13007KT 13/07 A3007 RMK AO1 SLP167 T01280072





000
SAUS43 KUNR 250757
MTRD07
METAR KD07 250756Z AUTO 15013KT 12/05 A3014 RMK AO1 SLP200 T01220050





000
SAUS43 KUNR 250757
MTRD07
METAR KD07 250756Z AUTO 15013KT 12/05 A3014 RMK AO1 SLP200 T01220050





000
SAUS43 KUNR 250659 COR
MTR2WX
METAR K2WX 250656Z AUTO 13008KT 13/07 A3008 RMK AO1 SLP170 T01330072
402670067





000
SAUS43 KUNR 250659 COR
MTR2WX
METAR K2WX 250656Z AUTO 13008KT 13/07 A3008 RMK AO1 SLP170 T01330072
402670067





000
SAUS43 KUNR 250657
MTRD07
METAR KD07 250656Z AUTO 15012KT 12/05 A3015 RMK AO1 SLP204 T01220050
402500083





000
SAUS43 KUNR 250657
MTRD07
METAR KD07 250656Z AUTO 15012KT 12/05 A3015 RMK AO1 SLP204 T01220050
402500083





000
SAUS43 KUNR 250557
MTR2WX
METAR K2WX 250556Z AUTO 15009KT 14/07 A3008 RMK AO1 SLP172 T01390072
10244 20128 55001





000
SAUS43 KUNR 250557
MTRD07
METAR KD07 250556Z AUTO 14010KT 14/05 A3015 RMK AO1 SLP204 T01390050
10244 20133 50000





000
SAUS43 KUNR 250557
MTRD07
METAR KD07 250556Z AUTO 14010KT 14/05 A3015 RMK AO1 SLP204 T01390050
10244 20133 50000





000
SAUS43 KUNR 250557
MTR2WX
METAR K2WX 250556Z AUTO 15009KT 14/07 A3008 RMK AO1 SLP172 T01390072
10244 20128 55001





000
SAUS43 KUNR 250458
MTRD07
METAR KD07 250456Z AUTO 14011KT 15/04 A3016 RMK AO1 SLP206 T01500039





000
SAUS43 KUNR 250458
MTR2WX
METAR K2WX 250456Z AUTO 14010KT 14/07 A3007 RMK AO1 SLP171 T01390072





000
SAUS43 KUNR 250357
MTRD07
METAR KD07 250356Z AUTO 15010KT 14/05 A3016 RMK AO1 SLP209 T01440050





000
SAUS43 KUNR 250357
MTR2WX
METAR K2WX 250356Z AUTO 14009KT 15/07 A3008 RMK AO1 SLP176 T01500072





000
SAUS43 KUNR 250258
MTRD07
METAR KD07 250256Z AUTO 14009KT 17/05 A3015 RMK AO1 SLP207 T01670050
53007





000
SAUS43 KUNR 250258
MTRD07
METAR KD07 250256Z AUTO 14009KT 17/05 A3015 RMK AO1 SLP207 T01670050
53007





000
SAUS43 KUNR 250257
MTR2WX
METAR K2WX 250256Z AUTO 13010KT 17/07 A3008 RMK AO1 SLP179 T01670072
53006





000
SAUS43 KUNR 250257
MTR2WX
METAR K2WX 250256Z AUTO 13010KT 17/07 A3008 RMK AO1 SLP179 T01670072
53006





000
SAUS43 KUNR 250158
MTR2WX
METAR K2WX 250156Z AUTO 13010KT 19/07 A3007 RMK AO1 SLP176 T01890072





000
SAUS43 KUNR 250158
MTR2WX
METAR K2WX 250156Z AUTO 13010KT 19/07 A3007 RMK AO1 SLP176 T01890072





000
SAUS43 KUNR 250157
MTRD07
METAR KD07 250156Z AUTO 14008KT 18/05 A3013 RMK AO1 SLP203 T01780050





000
SAUS43 KUNR 250058
MTR2WX
METAR K2WX 250056Z AUTO 12010KT 22/07 A3006 RMK AO1 SLP171 T02170072





000
SAUS43 KUNR 250058
MTRD07
METAR KD07 250056Z AUTO 14007KT 22/05 A3013 RMK AO1 SLP201 T02170050





    US Dept of Commerce
    National Oceanic and Atmospheric Administration
    National Weather Service
    1325 East West Highway
    Silver Spring, MD 20910
    Page Author: NWS Internet Services Team
Disclaimer
Information Quality
Credits
Glossary
Privacy Policy
Freedom of Information Act (FOIA)
About Us
Career Opportunities